Time;durP1;ratioP1;P1;durP2;ratioP2;P2;SDS_P1;SDS_P2;PMS_P1;PMS_P2;Temp;Humidity;BMP_temperature;BMP_pressure;BME280_temperature;BME280_humidity;BME280_pressure;Samples;Min_cycle;Max_cycle;Signal;HPM_P1;HPM_P2
2021/08/15 00:00:22;;;;;;;;;26.67;26.00;;;;;28.16;50.42;98829.88;6091531;28;97489;-61
2021/08/15 00:03:26;;;;;;;;;29.00;25.40;;;;;28.14;50.73;98835.75;6074274;28;97654;-60
2021/08/15 00:06:30;;;;;;;;;28.00;25.00;;;;;28.14;50.46;98827.44;6090774;28;97126;-61
2021/08/15 00:09:33;;;;;;;;;27.00;25.40;;;;;28.14;50.40;98826.63;6074998;28;97533;-61
2021/08/15 00:12:38;;;;;;;;;26.80;24.80;;;;;28.15;50.76;98834.59;6092265;28;97434;-60
2021/08/15 00:15:41;;;;;;;;;27.00;25.60;;;;;28.15;50.66;98831.03;6091823;28;97485;-60
2021/08/15 00:18:46;;;;;;;;;25.60;23.00;;;;;28.12;51.08;98829.75;6091869;28;96747;-59
2021/08/15 00:21:50;;;;;;;;;26.40;25.40;;;;;28.12;50.95;98820.59;6091478;28;98075;-60
2021/08/15 00:24:54;;;;;;;;;24.60;24.00;;;;;28.06;50.91;98821.91;6073618;28;98626;-61
2021/08/15 00:27:57;;;;;;;;;28.00;25.50;;;;;28.02;51.07;98824.56;6091885;28;97448;-61
2021/08/15 00:31:01;;;;;;;;;27.00;25.00;;;;;27.97;51.16;98817.28;6090926;28;97400;-60
2021/08/15 00:34:08;;;;;;;;;25.00;23.25;;;;;27.91;51.22;98818.59;6082497;28;97492;-61
2021/08/15 00:37:12;;;;;;;;;25.75;25.25;;;;;27.85;51.38;98814.44;6092357;28;97016;-61
2021/08/15 00:40:16;;;;;;;;;26.80;25.00;;;;;27.84;51.16;98823.09;6091275;28;97033;-61
2021/08/15 00:43:19;;;;;;;;;28.50;25.00;;;;;27.78;51.38;98818.88;6074725;28;96688;-60
2021/08/15 00:46:39;;;;;;;;;26.00;24.00;;;;;27.78;51.31;98822.47;6090548;28;97076;-60
2021/08/15 00:49:44;;;;;;;;;27.00;25.50;;;;;27.74;51.46;98818.75;6091339;28;96599;-59
2021/08/15 00:52:47;;;;;;;;;27.60;26.60;;;;;27.71;51.49;98815.84;6091259;28;96540;-61
2021/08/15 00:55:50;;;;;;;;;27.40;26.00;;;;;27.70;51.18;98814.22;6091602;28;97131;-60
2021/08/15 00:58:54;;;;;;;;;29.00;27.00;;;;;27.63;51.18;98808.38;6090947;28;97299;-61
2021/08/15 01:02:00;;;;;;;;;26.00;24.75;;;;;27.70;51.18;98819.75;6090678;28;97677;-60
2021/08/15 01:05:06;;;;;;;;;25.75;24.50;;;;;27.69;51.41;98818.94;6090899;28;97554;-59
2021/08/15 01:08:10;;;;;;;;;28.00;26.40;;;;;27.69;51.16;98827.25;6090823;28;98108;-61
2021/08/15 01:11:13;;;;;;;;;28.80;27.80;;;;;27.63;51.13;98814.75;6090487;28;97515;-60
2021/08/15 01:14:17;;;;;;;;;27.00;24.80;;;;;27.65;51.29;98817.19;6073531;28;97580;-59
2021/08/15 01:17:22;;;;;;;;;25.00;24.40;;;;;27.58;51.31;98810.22;6057632;28;98790;-61
2021/08/15 01:20:35;;;;;;;;;25.00;24.00;;;;;27.60;51.53;98811.84;6060730;28;96685;-60
2021/08/15 01:23:44;;;;;;;;;24.00;23.00;;;;;27.54;51.29;98825.88;6088954;28;97296;-61
2021/08/15 01:26:49;;;;;;;;;23.00;22.00;;;;;27.51;51.22;98818.22;6090978;28;97367;-60
2021/08/15 01:29:53;;;;;;;;;23.00;22.60;;;;;27.54;51.04;98825.88;6091489;28;97390;-59
2021/08/15 01:32:57;;;;;;;;;25.00;24.00;;;;;27.56;50.63;98823.56;6090239;28;96758;-60
2021/08/15 01:36:02;;;;;;;;;23.00;22.00;;;;;27.55;50.98;98821.97;6090598;28;98045;-60
2021/08/15 01:39:05;;;;;;;;;26.00;23.40;;;;;27.49;51.13;98823.31;6091104;28;97402;-58
2021/08/15 01:42:09;;;;;;;;;24.00;22.00;;;;;27.46;50.65;98818.41;6089790;28;97397;-60
2021/08/15 01:45:14;;;;;;;;;21.60;20.80;;;;;27.40;51.19;98810.63;6089910;28;96598;-61
2021/08/15 01:48:18;;;;;;;;;25.80;24.80;;;;;27.33;51.20;98821.38;6091185;28;97500;-59
2021/08/15 01:51:22;;;;;;;;;23.50;21.00;;;;;27.29;51.35;98818.47;6091729;28;97595;-59
2021/08/15 01:54:25;;;;;;;;;22.40;20.40;;;;;27.24;51.58;98809.56;6090376;28;96749;-59
2021/08/15 01:57:28;;;;;;;;;23.00;21.00;;;;;27.20;51.16;98805.84;6090481;28;96769;-61
2021/08/15 02:00:33;;;;;;;;;24.00;23.00;;;;;27.15;51.70;98813.19;6089352;28;96584;-61
2021/08/15 02:03:38;;;;;;;;;24.00;21.40;;;;;27.09;51.67;98814.50;6090495;28;98688;-59
2021/08/15 02:06:41;;;;;;;;;23.00;20.00;;;;;27.10;51.56;98812.53;6089190;28;98381;-61
2021/08/15 02:09:44;;;;;;;;;23.40;22.40;;;;;27.10;51.57;98807.84;6090140;28;96562;-61
2021/08/15 02:12:48;;;;;;;;;25.75;24.75;;;;;27.11;51.64;98812.22;6089837;28;97469;-61
2021/08/15 02:15:52;;;;;;;;;22.20;21.20;;;;;27.09;51.22;98810.91;6089479;28;97482;-59
2021/08/15 02:18:56;;;;;;;;;23.60;22.00;;;;;27.10;51.70;98799.53;6089528;28;97155;-58
2021/08/15 02:21:59;;;;;;;;;26.00;23.00;;;;;27.08;51.72;98807.34;6074326;28;97040;-60
2021/08/15 02:25:04;;;;;;;;;22.50;21.00;;;;;27.09;51.81;98799.84;6093791;28;96722;-60
2021/08/15 02:28:08;;;;;;;;;25.00;22.80;;;;;27.04;51.38;98798.09;6093157;28;98336;-60
2021/08/15 02:31:13;;;;;;;;;22.00;21.00;;;;;27.05;51.78;98798.91;6093437;28;97442;-61
2021/08/15 02:34:17;;;;;;;;;21.00;20.00;;;;;27.11;51.37;98795.63;6094923;28;97392;-61
2021/08/15 02:37:20;;;;;;;;;24.00;21.60;;;;;27.11;51.47;98792.84;6093860;28;96499;-59
2021/08/15 03:02:57;;;;;;;;;24.80;23.40;;;;;27.09;51.29;98781.28;6066546;28;97189;-60
2021/08/15 03:06:01;;;;;;;;;22.75;21.00;;;;;27.02;51.55;98780.19;6091372;28;96612;-59
2021/08/15 03:09:04;;;;;;;;;21.20;19.80;;;;;26.99;51.43;98778.09;6092309;28;96629;-58
2021/08/15 03:12:08;;;;;;;;;22.80;21.20;;;;;26.93;51.52;98782.16;6093965;28;97627;-58
2021/08/15 03:15:12;;;;;;;;;21.00;20.40;;;;;26.90;51.87;98777.31;6076156;28;97607;-61
2021/08/15 03:18:18;;;;;;;;;24.60;23.00;;;;;26.88;51.93;98779.63;6092330;28;96710;-60
2021/08/15 03:21:24;;;;;;;;;22.00;21.00;;;;;26.85;51.60;98778.28;6093647;28;96566;-60
2021/08/15 03:24:28;;;;;;;;;24.00;21.00;;;;;26.81;51.73;98771.78;6091830;28;97341;-61
2021/08/15 03:27:31;;;;;;;;;24.40;23.00;;;;;26.74;51.62;98769.53;6092663;28;96502;-60
2021/08/15 03:30:35;;;;;;;;;23.00;21.00;;;;;26.54;52.03;98764.69;6092645;28;97635;-58
2021/08/15 03:33:40;;;;;;;;;21.00;20.00;;;;;26.56;52.06;98767.97;6092090;28;96454;-60
2021/08/15 03:36:43;;;;;;;;;21.80;19.20;;;;;26.45;52.51;98766.69;6092407;28;98124;-60
2021/08/15 03:39:46;;;;;;;;;23.00;21.75;;;;;26.41;52.57;98778.72;6092997;28;97422;-60
2021/08/15 03:42:49;;;;;;;;;24.40;23.00;;;;;26.30;52.49;98767.19;6092750;28;97548;-59
2021/08/15 03:45:53;;;;;;;;;24.60;23.00;;;;;26.23;52.73;98777.94;6092972;28;97478;-58
2021/08/15 03:49:00;;;;;;;;;24.00;21.40;;;;;26.14;52.73;98771.59;6093005;28;96494;-60
2021/08/15 03:52:03;;;;;;;;;26.00;24.60;;;;;26.09;52.89;98778.09;6090869;28;96692;-60
2021/08/15 03:55:10;;;;;;;;;24.60;22.60;;;;;26.08;53.00;98772.88;6074968;28;96622;-58
2021/08/15 03:58:14;;;;;;;;;24.75;23.00;;;;;25.95;52.94;98769.13;6058442;28;97731;-61
2021/08/15 04:01:18;;;;;;;;;26.00;23.50;;;;;25.87;53.14;98765.25;6092202;28;96865;-61
2021/08/15 04:04:22;;;;;;;;;21.20;20.20;;;;;25.80;53.38;98775.97;6092854;28;96551;-60
2021/08/15 04:07:26;;;;;;;;;22.60;20.60;;;;;25.72;53.77;98781.47;6091746;28;97468;-59
2021/08/15 04:10:31;;;;;;;;;22.00;21.00;;;;;25.67;53.83;98770.59;6075075;28;96608;-58
2021/08/15 04:13:34;;;;;;;;;23.00;22.00;;;;;25.71;53.84;98771.56;6074874;28;97718;-58
2021/08/15 04:16:39;;;;;;;;;22.00;21.00;;;;;25.75;53.84;98767.88;6092674;28;96479;-58
2021/08/15 04:19:43;;;;;;;;;24.00;21.40;;;;;25.81;53.94;98765.72;6091982;28;97193;-60
2021/08/15 04:22:47;;;;;;;;;22.00;21.00;;;;;25.91;53.65;98761.81;6073923;28;97309;-60
2021/08/15 04:25:50;;;;;;;;;25.00;23.00;;;;;25.97;53.54;98752.25;6091470;28;96501;-60
2021/08/15 04:28:54;;;;;;;;;25.60;23.00;;;;;26.03;53.85;98756.47;6091003;28;97611;-61
2021/08/15 04:31:57;;;;;;;;;21.75;20.75;;;;;26.09;53.92;98761.50;6091024;28;97397;-60
2021/08/15 04:35:04;;;;;;;;;23.20;21.00;;;;;26.18;54.14;98759.56;6091911;28;98268;-61
2021/08/15 04:38:08;;;;;;;;;23.00;21.75;;;;;26.32;53.53;98758.56;6091522;28;96792;-60
2021/08/15 04:41:11;;;;;;;;;24.00;21.20;;;;;26.45;53.37;98761.16;6091437;28;97414;-60
2021/08/15 04:44:15;;;;;;;;;24.00;22.00;;;;;26.59;53.09;98755.41;6091627;28;97510;-60
2021/08/15 04:47:18;;;;;;;;;25.00;23.00;;;;;26.71;53.13;98750.03;6091042;28;96938;-60
2021/08/15 04:50:22;;;;;;;;;23.60;22.40;;;;;26.84;52.87;98756.47;6090987;28;97533;-60
2021/08/15 04:53:27;;;;;;;;;22.60;21.60;;;;;26.94;52.68;98750.59;6090963;28;98301;-58
2021/08/15 04:56:30;;;;;;;;;20.60;19.80;;;;;27.09;52.81;98750.84;6091026;28;97532;-60
2021/08/15 04:59:33;;;;;;;;;21.60;21.00;;;;;27.22;52.36;98750.97;6090132;28;97496;-60
2021/08/15 05:02:37;;;;;;;;;20.00;18.00;;;;;27.40;51.57;98750.53;6091777;28;96516;-59
2021/08/15 05:05:43;;;;;;;;;21.00;20.00;;;;;27.57;51.36;98752.38;6091128;28;97395;-61
2021/08/15 05:08:46;;;;;;;;;22.25;21.00;;;;;27.75;51.16;98750.31;6091923;28;96656;-59
2021/08/15 05:11:49;;;;;;;;;19.00;19.00;;;;;27.93;50.95;98752.59;6091774;28;96895;-60
2021/08/15 05:14:52;;;;;;;;;22.00;20.00;;;;;28.07;50.69;98757.84;6091109;28;96504;-61
2021/08/15 05:17:56;;;;;;;;;22.50;21.00;;;;;28.20;49.47;98754.00;6091074;28;97253;-59
2021/08/15 05:21:00;;;;;;;;;21.40;20.00;;;;;28.37;49.41;98755.81;6090867;28;96769;-58
2021/08/15 05:24:04;;;;;;;;;21.00;20.00;;;;;28.55;49.74;98748.09;6089531;28;96700;-60
2021/08/15 05:27:07;;;;;;;;;21.00;20.00;;;;;28.72;49.16;98747.94;6090650;28;97317;-60
2021/08/15 05:30:11;;;;;;;;;20.00;19.75;;;;;28.84;48.84;98750.72;6091126;28;97492;-60
2021/08/15 05:33:15;;;;;;;;;21.40;20.00;;;;;28.97;48.98;98746.81;6074824;28;96672;-59
2021/08/15 05:36:19;;;;;;;;;21.00;19.50;;;;;29.13;48.69;98749.69;6090173;28;96715;-60
2021/08/15 05:39:23;;;;;;;;;19.00;19.00;;;;;29.21;47.37;98744.03;6090216;28;96488;-60
2021/08/15 05:42:26;;;;;;;;;23.00;21.00;;;;;29.31;47.41;98741.97;6089983;28;97471;-61
2021/08/15 05:45:30;;;;;;;;;23.00;21.00;;;;;29.47;48.74;98751.22;6090486;28;97674;-61
2021/08/15 05:48:33;;;;;;;;;21.20;21.00;;;;;29.62;47.88;98747.69;6089541;28;97413;-60
2021/08/15 05:51:38;;;;;;;;;23.80;21.20;;;;;29.73;47.09;98751.63;6090853;28;97468;-61
2021/08/15 05:54:41;;;;;;;;;22.67;20.67;;;;;29.79;46.27;98753.00;6090450;28;97151;-59
2021/08/15 05:57:44;;;;;;;;;22.60;21.00;;;;;29.83;46.01;98753.91;6088926;28;96743;-61
2021/08/15 06:00:48;;;;;;;;;22.00;18.00;;;;;29.95;45.28;98753.91;6089573;28;96840;-62
2021/08/15 06:03:52;;;;;;;;;17.80;17.80;;;;;30.07;45.99;98742.75;6089604;28;97493;-59
2021/08/15 06:06:56;;;;;;;;;18.60;18.00;;;;;30.27;45.41;98749.25;6072573;28;97720;-59
2021/08/15 06:10:00;;;;;;;;;19.75;19.00;;;;;30.38;45.65;98750.38;6089716;28;96662;-61
2021/08/15 06:13:03;;;;;;;;;20.00;19.40;;;;;30.53;45.96;98740.47;6090184;28;97488;-59
2021/08/15 06:16:07;;;;;;;;;20.60;19.00;;;;;30.64;45.75;98751.88;6090071;28;97498;-60
2021/08/15 06:19:11;;;;;;;;;21.00;19.25;;;;;30.84;45.71;98748.81;6089479;28;97399;-61
2021/08/15 06:22:16;;;;;;;;;22.00;21.00;;;;;31.03;45.14;98744.56;6071327;28;96643;-60
2021/08/15 06:25:19;;;;;;;;;18.00;16.80;;;;;31.16;45.13;98748.84;6088409;28;98708;-61
2021/08/15 06:28:22;;;;;;;;;19.50;18.00;;;;;31.34;45.86;98748.09;6071136;28;97303;-61
2021/08/15 06:31:26;;;;;;;;;21.00;20.40;;;;;31.35;44.26;98744.16;6089031;28;97476;-61
2021/08/15 06:34:30;;;;;;;;;18.20;18.00;;;;;31.38;44.53;98743.41;6088924;28;96604;-61
2021/08/15 06:37:34;;;;;;;;;20.20;19.20;;;;;31.54;44.80;98737.00;6091374;28;97481;-59
2021/08/15 06:40:37;;;;;;;;;20.00;19.00;;;;;31.74;44.40;98735.88;6071861;28;96517;-59
2021/08/15 06:43:41;;;;;;;;;20.80;19.20;;;;;31.96;44.68;98742.75;6072312;28;98734;-59
2021/08/15 06:46:44;;;;;;;;;20.40;19.00;;;;;32.24;44.12;98744.16;6088395;28;97415;-60
2021/08/15 06:49:48;;;;;;;;;20.00;19.50;;;;;32.48;44.17;98740.22;6090148;28;96715;-59
2021/08/15 06:52:52;;;;;;;;;20.40;18.00;;;;;32.64;42.73;98740.97;6089388;28;97519;-59
2021/08/15 06:55:59;;;;;;;;;17.60;17.00;;;;;32.63;41.75;98738.50;6089673;28;97527;-60
2021/08/15 06:59:03;;;;;;;;;20.00;18.00;;;;;32.72;41.54;98739.09;6089470;28;96859;-60
2021/08/15 07:02:06;;;;;;;;;17.00;16.00;;;;;32.85;42.06;98731.31;6089125;28;97249;-59
2021/08/15 07:05:11;;;;;;;;;18.00;17.00;;;;;32.98;41.90;98722.41;6089220;28;97594;-61
2021/08/15 07:08:16;;;;;;;;;17.00;16.00;;;;;33.35;41.31;98730.16;6090469;28;96452;-60
2021/08/15 07:11:19;;;;;;;;;17.60;16.60;;;;;33.28;40.33;98724.50;6093028;28;97480;-60
2021/08/15 07:14:23;;;;;;;;;17.00;17.00;;;;;33.19;40.54;98721.94;6093552;28;97475;-58
2021/08/15 07:17:26;;;;;;;;;18.00;18.00;;;;;33.22;40.16;98717.59;6074840;28;96906;-60
2021/08/15 07:20:32;;;;;;;;;16.80;15.00;;;;;33.26;40.37;98690.53;6092986;28;97627;-60
2021/08/15 07:23:37;;;;;;;;;17.50;16.00;;;;;33.22;39.99;98732.38;6092814;28;97296;-61
2021/08/15 07:26:41;;;;;;;;;20.40;17.00;;;;;33.41;39.43;98723.06;6092056;28;96653;-58
2021/08/15 07:29:44;;;;;;;;;18.00;18.00;;;;;33.23;39.55;98724.81;6093993;28;97514;-58
2021/08/15 07:32:52;;;;;;;;;16.60;15.60;;;;;33.49;40.16;98725.59;6092951;28;96626;-61
2021/08/15 07:35:56;;;;;;;;;20.00;18.00;;;;;33.65;38.87;98721.81;6094100;28;98649;-61
2021/08/15 07:39:01;;;;;;;;;17.60;17.60;;;;;33.84;38.99;98716.91;6092628;28;98055;-58
2021/08/15 07:42:05;;;;;;;;;18.00;16.60;;;;;34.06;38.48;98723.59;6092679;28;97553;-60
2021/08/15 07:45:09;;;;;;;;;18.00;16.40;;;;;34.08;38.69;98723.19;6092384;28;97019;-60
2021/08/15 07:48:13;;;;;;;;;18.00;17.50;;;;;33.99;38.21;98731.88;6091993;28;97461;-60
2021/08/15 07:51:16;;;;;;;;;19.50;17.00;;;;;34.20;38.66;98720.19;6076480;28;96641;-61
2021/08/15 07:54:20;;;;;;;;;18.00;17.00;;;;;34.45;38.58;98718.47;6074884;28;97499;-60
2021/08/15 07:57:24;;;;;;;;;17.00;17.00;;;;;34.60;37.72;98720.19;6092357;28;97104;-61
2021/08/15 08:00:27;;;;;;;;;19.60;19.00;;;;;34.60;38.02;98711.00;6093302;28;97414;-58
2021/08/15 08:03:31;;;;;;;;;18.00;16.20;;;;;34.60;38.86;98714.59;6092225;28;96783;-60
2021/08/15 08:06:34;;;;;;;;;17.00;16.00;;;;;34.70;38.03;98713.09;6091388;28;96487;-60
2021/08/15 08:09:39;;;;;;;;;15.50;15.00;;;;;34.92;37.33;98700.91;6092182;28;97467;-60
2021/08/15 08:12:45;;;;;;;;;16.75;16.00;;;;;35.26;37.45;98706.41;6090995;28;96532;-61
2021/08/15 08:15:52;;;;;;;;;17.40;15.40;;;;;35.50;36.21;98702.94;6092830;28;96801;-59
2021/08/15 08:18:56;;;;;;;;;16.00;15.00;;;;;35.76;36.00;98719.53;6089653;28;97056;-58
2021/08/15 08:21:59;;;;;;;;;18.00;17.00;;;;;35.99;35.55;98713.63;6091216;28;96659;-60
2021/08/15 08:25:05;;;;;;;;;17.33;16.00;;;;;36.09;34.45;98709.25;6092078;28;97600;-62
2021/08/15 08:28:08;;;;;;;;;17.00;15.60;;;;;36.10;35.63;98705.25;6092090;28;97576;-60
2021/08/15 08:31:11;;;;;;;;;17.00;17.00;;;;;36.21;34.25;98701.31;6091278;28;96467;-61
2021/08/15 08:34:15;;;;;;;;;16.00;15.50;;;;;36.29;32.70;98704.94;6091928;28;96643;-59
2021/08/15 08:37:18;;;;;;;;;16.00;15.00;;;;;36.40;32.72;98708.59;6092702;28;97073;-60
2021/08/15 08:40:23;;;;;;;;;16.00;13.00;;;;;36.39;32.15;98698.53;6074260;28;97571;-61
2021/08/15 08:43:27;;;;;;;;;15.50;14.00;;;;;36.36;33.08;98704.97;6090873;28;96990;-60
2021/08/15 08:46:31;;;;;;;;;16.00;15.00;;;;;36.55;33.81;98693.38;6091497;28;97493;-58
2021/08/15 08:49:36;;;;;;;;;15.50;15.00;;;;;36.85;33.12;98688.19;6092017;28;96490;-60
2021/08/15 08:52:40;;;;;;;;;17.00;16.00;;;;;36.94;32.84;98687.78;6091217;28;97423;-60
2021/08/15 08:55:45;;;;;;;;;16.00;15.00;;;;;37.03;32.45;98673.31;6090630;28;96909;-60
2021/08/15 08:58:49;;;;;;;;;13.80;13.40;;;;;37.09;32.06;98677.38;6090728;28;97848;-61
2021/08/15 09:01:53;;;;;;;;;17.00;16.00;;;;;37.26;31.55;98680.16;6091568;28;96507;-61
2021/08/15 09:04:57;;;;;;;;;15.40;14.60;;;;;37.46;31.10;98674.06;6091126;28;98096;-58
2021/08/15 09:08:01;;;;;;;;;16.25;16.25;;;;;37.62;30.97;98674.47;6092260;28;96697;-58
2021/08/15 09:11:14;;;;;;;;;14.40;14.40;;;;;37.69;31.21;98666.78;6091832;28;97130;-59
2021/08/15 09:14:19;;;;;;;;;15.60;15.00;;;;;38.00;31.81;98667.91;6091631;28;97231;-59
2021/08/15 09:17:22;;;;;;;;;16.00;15.00;;;;;38.25;30.96;98658.50;6091329;28;97472;-61
2021/08/15 09:20:38;;;;;;;;;16.00;15.00;;;;;38.29;30.02;98656.47;6091286;28;96588;-59
2021/08/15 09:23:41;;;;;;;;;15.00;15.00;;;;;38.47;30.03;98648.72;6074368;28;97992;-59
2021/08/15 09:26:56;;;;;;;;;16.20;15.00;;;;;38.80;30.25;98647.25;6090566;28;96680;-60
2021/08/15 09:30:14;;;;;;;;;15.00;14.00;;;;;38.92;28.94;98650.38;6091796;28;96522;-60
2021/08/15 09:33:19;;;;;;;;;15.00;14.00;;;;;38.95;28.85;98648.75;6074601;28;98599;-61
2021/08/15 09:36:27;;;;;;;;;12.75;12.00;;;;;39.11;29.14;98645.38;6090693;28;96921;-60
2021/08/15 09:39:32;;;;;;;;;17.00;14.00;;;;;39.22;28.02;98634.78;6073713;28;97712;-59
2021/08/15 09:42:44;;;;;;;;;13.00;13.00;;;;;39.28;27.61;98635.94;6072844;28;99833;-60
2021/08/15 09:45:49;;;;;;;;;15.40;13.60;;;;;39.27;27.87;98635.13;6090413;28;96658;-61
2021/08/15 09:48:52;;;;;;;;;16.60;15.00;;;;;39.38;28.67;98627.38;6088920;28;97524;-60
2021/08/15 09:51:55;;;;;;;;;13.00;13.00;;;;;39.59;28.05;98628.34;6088427;28;97995;-60
2021/08/15 09:55:00;;;;;;;;;12.00;12.00;;;;;39.97;28.37;98629.91;6087704;28;97198;-59
2021/08/15 09:58:17;;;;;;;;;15.00;14.60;;;;;39.88;27.35;98629.59;6079284;28;97490;-59
2021/08/15 10:01:21;;;;;;;;;13.40;13.00;;;;;40.05;27.36;98634.22;6088423;28;98008;-60
2021/08/15 10:04:25;;;;;;;;;12.75;12.75;;;;;40.27;26.81;98614.97;6071333;28;97739;-60
2021/08/15 10:07:31;;;;;;;;;14.00;12.40;;;;;40.21;26.88;98620.28;6089198;28;97487;-61
2021/08/15 10:10:36;;;;;;;;;14.00;13.00;;;;;39.98;27.33;98614.53;6090203;28;97425;-62
2021/08/15 10:13:40;;;;;;;;;16.00;15.00;;;;;39.58;27.29;98607.81;6088880;28;96866;-62
2021/08/15 10:16:49;;;;;;;;;15.00;14.00;;;;;39.22;28.72;98610.22;6087588;28;97532;-62
2021/08/15 10:19:57;;;;;;;;;16.33;15.00;;;;;38.82;28.48;98611.78;6089854;28;96954;-62
2021/08/15 10:23:08;;;;;;;;;15.00;15.00;;;;;38.41;29.68;98606.09;6088198;28;97448;-62
2021/08/15 10:26:38;;;;;;;;;14.00;14.00;;;;;38.07;30.47;98607.94;6088922;28;97457;-62
2021/08/15 10:29:44;;;;;;;;;15.75;14.00;;;;;37.82;32.19;98607.25;6072216;28;96615;-62
2021/08/15 10:33:17;;;;;;;;;16.80;14.60;;;;;37.53;32.72;98610.22;6088578;28;97472;-62
2021/08/15 10:36:25;;;;;;;;;14.25;14.00;;;;;37.26;33.23;98595.81;6083551;28;97489;-62
2021/08/15 10:39:38;;;;;;;;;14.00;13.25;;;;;37.00;33.50;98601.03;6087204;28;96650;-60
2021/08/15 10:42:45;;;;;;;;;15.80;14.00;;;;;36.88;34.00;98603.09;6089569;28;96618;-62
2021/08/15 10:46:09;;;;;;;;;14.00;13.00;;;;;36.77;34.45;98601.50;6093962;28;96747;-63
2021/08/15 10:49:12;;;;;;;;;14.25;13.25;;;;;36.77;34.94;98590.25;6091732;28;97572;-62
2021/08/15 10:52:38;;;;;;;;;16.00;15.25;;;;;36.81;36.31;98575.00;6085397;28;97434;-63
2021/08/15 10:55:42;;;;;;;;;17.50;16.00;;;;;37.06;36.31;98585.38;6069281;28;96686;-64
2021/08/15 10:58:47;;;;;;;;;16.20;14.80;;;;;37.19;37.02;98587.38;6092792;28;97169;-64
2021/08/15 11:01:52;;;;;;;;;17.20;15.20;;;;;37.28;35.96;98587.78;6092702;28;97116;-63
2021/08/15 11:04:57;;;;;;;;;15.25;14.00;;;;;37.52;35.78;98599.31;6078274;28;97436;-62
2021/08/15 11:08:00;;;;;;;;;16.00;15.75;;;;;37.70;34.90;98600.88;6092529;28;96969;-64
2021/08/15 11:11:06;;;;;;;;;16.00;15.00;;;;;38.05;35.12;98593.47;6091449;28;96670;-60
2021/08/15 11:14:28;;;;;;;;;18.00;17.00;;;;;38.37;33.98;98579.94;6091863;28;97279;-63
2021/08/15 11:17:34;;;;;;;;;19.00;17.25;;;;;38.65;33.48;98572.53;6092931;28;96581;-61
2021/08/15 11:20:45;;;;;;;;;18.00;17.00;;;;;38.78;32.25;98573.59;6089937;28;96730;-61
2021/08/15 11:23:48;;;;;;;;;18.00;16.00;;;;;39.00;31.90;98572.16;6092771;28;96618;-61
2021/08/15 11:26:53;;;;;;;;;16.40;15.60;;;;;38.93;31.43;98558.16;6093095;28;96614;-62
2021/08/15 11:29:58;;;;;;;;;17.40;16.40;;;;;39.02;31.67;98566.94;6092551;28;97995;-61
2021/08/15 11:33:07;;;;;;;;;15.75;14.00;;;;;39.00;31.29;98578.63;6092003;28;97521;-64
2021/08/15 11:36:15;;;;;;;;;15.00;14.40;;;;;39.06;31.13;98578.16;6082416;28;97351;-62
2021/08/15 11:39:19;;;;;;;;;17.00;15.80;;;;;39.12;31.27;98580.09;6071251;28;96725;-61
2021/08/15 11:42:24;;;;;;;;;14.00;14.00;;;;;39.15;30.54;98565.16;6074512;28;98433;-63
2021/08/15 11:45:30;;;;;;;;;16.80;14.60;;;;;39.30;30.08;98562.97;6084579;28;97179;-62
2021/08/15 11:48:36;;;;;;;;;14.60;14.00;;;;;39.38;29.47;98568.16;6090903;28;97001;-62
2021/08/15 11:51:40;;;;;;;;;14.50;14.50;;;;;39.41;29.63;98569.31;6092328;28;97475;-63
2021/08/15 11:54:46;;;;;;;;;15.00;14.00;;;;;39.44;29.48;98564.88;6073423;28;96880;-65
2021/08/15 11:57:51;;;;;;;;;16.00;15.00;;;;;39.52;30.65;98557.91;6086425;28;96850;-64
2021/08/15 12:00:54;;;;;;;;;15.00;14.00;;;;;39.64;29.03;98551.69;6088574;28;96721;-63
2021/08/15 12:04:01;;;;;;;;;14.60;14.00;;;;;39.89;29.31;98554.97;6090469;28;96618;-63
2021/08/15 12:07:05;;;;;;;;;16.25;15.25;;;;;39.95;28.95;98544.81;6057591;28;97476;-64
2021/08/15 12:10:27;;;;;;;;;16.00;15.00;;;;;40.01;28.87;98545.13;6088517;28;97253;-64
2021/08/15 12:13:33;;;;;;;;;17.00;16.00;;;;;39.82;28.82;98546.63;6073546;28;97354;-63
2021/08/15 12:28:15;;;;;;;;;17.00;16.00;;;;;39.46;29.16;98514.44;6089578;28;98815;-64
2021/08/15 12:31:24;;;;;;;;;18.00;17.00;;;;;39.27;29.27;98533.59;6068645;28;98672;-60
2021/08/15 12:34:28;;;;;;;;;15.00;14.00;;;;;38.95;30.27;98530.38;6089429;28;96883;-62
2021/08/15 12:37:39;;;;;;;;;18.00;18.00;;;;;38.86;30.79;98528.00;6087075;28;97299;-61
2021/08/15 12:40:44;;;;;;;;;16.00;15.00;;;;;39.11;29.86;98522.13;6088370;28;96646;-62
2021/08/15 12:44:10;;;;;;;;;16.60;15.60;;;;;39.30;29.61;98524.28;6090627;28;97529;-62
2021/08/15 12:47:14;;;;;;;;;18.00;17.00;;;;;39.09;29.00;98509.69;6091079;28;97472;-62
2021/08/15 12:50:20;;;;;;;;;17.00;17.00;;;;;39.12;29.10;98518.09;6070072;28;99979;-63
2021/08/15 12:53:32;;;;;;;;;15.60;15.60;;;;;39.39;28.68;98509.72;6090402;28;96599;-64
2021/08/15 12:56:36;;;;;;;;;17.20;15.80;;;;;39.48;27.84;98509.19;6090453;28;96583;-63
2021/08/15 12:59:40;;;;;;;;;17.00;16.00;;;;;39.64;28.23;98501.69;6089527;28;97397;-63
2021/08/15 13:02:45;;;;;;;;;16.00;14.60;;;;;39.79;28.55;98508.75;6091005;28;96515;-62
2021/08/15 13:05:49;;;;;;;;;17.00;16.00;;;;;39.75;27.54;98510.00;6089678;28;96694;-63
2021/08/15 13:08:53;;;;;;;;;18.00;16.00;;;;;39.82;27.31;98499.44;6090461;28;96637;-63
2021/08/15 13:11:57;;;;;;;;;17.40;15.40;;;;;39.90;27.74;98502.16;6074012;28;97651;-61
2021/08/15 13:15:04;;;;;;;;;18.50;17.50;;;;;39.85;26.33;98500.59;6072859;28;99631;-62
2021/08/15 13:18:08;;;;;;;;;16.80;15.80;;;;;39.82;26.43;98491.00;6091937;28;96661;-60
2021/08/15 13:21:12;;;;;;;;;15.00;14.60;;;;;39.97;27.57;98496.41;6090014;28;97100;-62
2021/08/15 13:24:15;;;;;;;;;16.00;16.00;;;;;39.97;24.86;98502.06;6089635;28;97513;-63
2021/08/15 13:27:18;;;;;;;;;12.00;11.00;;;;;39.92;25.05;98497.69;6089139;28;97200;-62
2021/08/15 13:30:23;;;;;;;;;14.80;14.00;;;;;39.69;24.88;98494.78;6063961;28;96874;-64
2021/08/15 13:33:26;;;;;;;;;12.40;12.00;;;;;39.65;24.18;98492.00;6060867;28;96890;-61
2021/08/15 13:36:31;;;;;;;;;13.00;12.00;;;;;39.39;24.90;98471.00;6054504;28;97257;-62
2021/08/15 13:39:34;;;;;;;;;14.00;13.50;;;;;39.49;25.03;98485.41;6027186;28;97930;-63
2021/08/15 13:42:39;;;;;;;;;14.00;13.00;;;;;39.47;24.38;98488.66;6058696;28;96776;-62
2021/08/15 13:45:46;;;;;;;;;13.00;12.00;;;;;39.29;24.24;98493.72;6060582;28;96946;-61
2021/08/15 13:48:49;;;;;;;;;12.00;12.00;;;;;39.04;23.85;98484.75;6058864;28;96774;-61
2021/08/15 13:51:53;;;;;;;;;14.00;13.00;;;;;38.87;24.17;98475.25;6065981;28;97499;-61
2021/08/15 13:54:56;;;;;;;;;12.00;12.00;;;;;38.77;25.38;98474.16;6058845;28;97460;-62
2021/08/15 13:57:59;;;;;;;;;14.00;13.00;;;;;38.65;24.80;98457.81;6052701;28;96874;-62
2021/08/15 14:01:04;;;;;;;;;14.00;13.00;;;;;38.38;24.76;98448.41;6042624;28;97369;-60
2021/08/15 14:04:08;;;;;;;;;15.00;14.00;;;;;38.43;25.50;98462.81;6063585;28;97585;-61
2021/08/15 14:07:11;;;;;;;;;15.00;14.00;;;;;38.53;25.58;98456.31;6063760;28;97207;-62
2021/08/15 14:10:15;;;;;;;;;13.00;12.00;;;;;38.58;24.73;98458.69;6057753;28;97454;-62
2021/08/15 14:13:18;;;;;;;;;13.25;12.00;;;;;38.74;25.32;98455.28;6063368;28;97282;-62
2021/08/15 14:16:24;;;;;;;;;14.00;13.00;;;;;38.84;24.99;98462.03;6064675;28;96632;-62
2021/08/15 14:19:28;;;;;;;;;12.40;12.40;;;;;38.79;24.53;98463.28;6066851;28;98076;-61
2021/08/15 14:22:32;;;;;;;;;13.00;12.20;;;;;38.76;24.57;98452.03;6071310;28;96595;-62
2021/08/15 14:25:35;;;;;;;;;14.60;13.40;;;;;38.59;24.83;98448.22;6065098;28;97523;-61
2021/08/15 14:28:39;;;;;;;;;15.00;14.00;;;;;38.44;24.60;98450.38;6070233;28;97817;-61
2021/08/15 14:31:44;;;;;;;;;14.00;13.60;;;;;38.49;25.74;98444.28;6084281;28;97459;-62
2021/08/15 14:34:47;;;;;;;;;13.60;13.00;;;;;38.63;25.94;98446.16;6090445;28;97092;-60
2021/08/15 14:37:50;;;;;;;;;13.80;13.20;;;;;38.71;24.67;98441.25;6077776;28;96703;-60
2021/08/15 14:40:53;;;;;;;;;13.80;13.00;;;;;38.79;25.37;98443.56;6074071;28;97217;-62
2021/08/15 14:43:57;;;;;;;;;14.00;13.00;;;;;38.80;25.58;98438.72;6091132;28;97298;-61